Time;durP1;ratioP1;P1;durP2;ratioP2;P2;SDS_P1;SDS_P2;PMS_P1;PMS_P2;Temp;Humidity;BMP_temperature;BMP_pressure;BME280_temperature;BME280_humidity;BME280_pressure;Samples;Min_cycle;Max_cycle;Signal;HPM_P1;HPM_P2
2021/08/16 00:00:37;;;;;;;0.10;0.10;;;;;;;18.54;74.99;99432.38;4857254;29;20530;-83
2021/08/16 00:03:03;;;;;;;0.00;0.00;;;;;;;18.52;75.22;99429.00;4841752;29;20136;-83
2021/08/16 00:05:30;;;;;;;0.10;0.10;;;;;;;18.42;75.59;99425.81;4855655;29;20049;-80
2021/08/16 00:07:56;;;;;;;0.10;0.10;;;;;;;18.38;75.69;99426.44;4828238;29;20110;-82
2021/08/16 00:10:22;;;;;;;0.10;0.10;;;;;;;18.38;75.77;99427.28;4856705;29;20433;-79
2021/08/16 00:12:48;;;;;;;0.10;0.10;;;;;;;18.32;76.45;99433.63;4827886;29;20046;-80
2021/08/16 00:15:14;;;;;;;0.10;0.10;;;;;;;18.26;76.31;99431.69;4840348;29;20049;-81
2021/08/16 00:17:40;;;;;;;0.10;0.10;;;;;;;18.22;76.57;99433.16;4857286;29;20152;-81
2021/08/16 00:20:08;;;;;;;0.10;0.10;;;;;;;18.15;76.75;99432.28;4828935;29;20042;-81
2021/08/16 00:22:34;;;;;;;0.10;0.10;;;;;;;18.10;77.24;99435.66;4841626;29;20065;-79
2021/08/16 00:24:59;;;;;;;0.10;0.10;;;;;;;18.05;77.57;99422.56;4809996;29;20597;-80
2021/08/16 00:27:25;;;;;;;0.10;0.10;;;;;;;18.05;77.70;99428.03;4855761;29;20453;-79
2021/08/16 00:29:51;;;;;;;0.10;0.10;;;;;;;18.06;77.31;99426.16;4840490;29;20046;-81
2021/08/16 00:32:17;;;;;;;0.10;0.10;;;;;;;18.06;77.43;99429.75;4839281;29;20465;-83
2021/08/16 00:34:43;;;;;;;0.10;0.10;;;;;;;18.05;77.69;99422.56;4856085;29;20109;-81
2021/08/16 00:37:08;;;;;;;0.10;0.10;;;;;;;18.01;77.86;99421.28;4855733;29;20053;-80
2021/08/16 00:39:34;;;;;;;0.10;0.10;;;;;;;18.00;77.74;99424.25;4855527;29;20113;-79
2021/08/16 00:42:00;;;;;;;0.10;0.10;;;;;;;17.99;77.69;99423.41;4840897;29;20548;-79
2021/08/16 00:44:27;;;;;;;0.10;0.10;;;;;;;17.96;77.95;99429.28;4825458;29;20049;-79
2021/08/16 00:46:52;;;;;;;0.10;0.10;;;;;;;17.96;77.96;99415.59;4840347;29;20048;-77
2021/08/16 00:49:18;;;;;;;0.10;0.10;;;;;;;17.96;77.91;99429.28;4829730;29;20045;-79
2021/08/16 00:51:44;;;;;;;0.10;0.10;;;;;;;17.96;77.69;99422.97;4856174;29;20052;-79
2021/08/16 00:54:10;;;;;;;0.10;0.10;;;;;;;17.93;78.11;99429.69;4828011;29;20054;-79
2021/08/16 00:56:38;;;;;;;0.10;0.10;;;;;;;17.93;78.16;99426.97;4838918;29;20113;-79
2021/08/16 00:59:09;;;;;;;0.10;0.10;;;;;;;17.89;78.02;99422.94;4826637;29;20041;-78
2021/08/16 01:01:35;;;;;;;0.10;0.10;;;;;;;17.87;78.15;99433.22;4855664;29;20041;-80
2021/08/16 01:04:01;;;;;;;0.10;0.10;;;;;;;17.84;78.56;99428.16;4854467;29;20117;-80
2021/08/16 01:06:27;;;;;;;0.10;0.10;;;;;;;17.75;79.05;99432.97;4856991;29;20076;-79
2021/08/16 01:08:53;;;;;;;0.10;0.10;;;;;;;17.67;79.23;99435.84;4859748;29;20124;-83
2021/08/16 01:11:20;;;;;;;0.10;0.10;;;;;;;17.62;79.55;99432.03;4819790;29;20042;-79
2021/08/16 01:13:47;;;;;;;0.10;0.10;;;;;;;17.54;80.10;99431.13;4859772;29;20102;-81
2021/08/16 01:16:15;;;;;;;0.10;0.10;;;;;;;17.52;80.14;99429.69;4859029;29;20125;-80
2021/08/16 01:18:41;;;;;;;0.10;0.10;;;;;;;17.49;80.50;99421.88;4830374;29;21036;-78
2021/08/16 01:21:09;;;;;;;0.10;0.10;;;;;;;17.49;80.43;99425.44;4858684;29;20059;-81
2021/08/16 01:23:36;;;;;;;0.10;0.10;;;;;;;17.49;80.29;99430.91;4811123;29;20094;-79
2021/08/16 01:26:02;;;;;;;0.10;0.10;;;;;;;17.47;80.58;99435.72;4859213;29;20144;-78
2021/08/16 01:28:28;;;;;;;0.10;0.10;;;;;;;17.43;80.84;99450.84;4842258;29;20520;-79
2021/08/16 01:31:00;;;;;;;0.10;0.10;;;;;;;17.38;81.02;99442.41;4827383;29;20136;-78
2021/08/16 01:33:26;;;;;;;0.10;0.10;;;;;;;17.31;81.30;99447.00;4837781;29;20045;-80
2021/08/16 01:35:52;;;;;;;0.10;0.10;;;;;;;17.34;81.14;99443.88;4843262;29;20042;-80
2021/08/16 01:38:20;;;;;;;0.10;0.10;;;;;;;17.31;81.41;99453.28;4840101;29;20082;-79
2021/08/16 01:40:46;;;;;;;0.10;0.10;;;;;;;17.29;81.31;99454.53;4846237;29;20041;-80
2021/08/16 01:43:12;;;;;;;0.10;0.10;;;;;;;17.27;81.45;99456.63;4858194;29;20085;-81
2021/08/16 01:45:38;;;;;;;0.10;0.10;;;;;;;17.23;81.70;99455.34;4858620;29;20432;-80
2021/08/16 01:48:04;;;;;;;0.10;0.10;;;;;;;17.18;81.62;99444.16;4830718;29;20105;-78
2021/08/16 01:50:30;;;;;;;0.10;0.10;;;;;;;17.14;82.10;99451.06;4831947;29;20141;-80
2021/08/16 01:52:56;;;;;;;0.10;0.10;;;;;;;17.10;82.06;99456.91;4827521;29;20128;-79
2021/08/16 01:55:22;;;;;;;0.10;0.10;;;;;;;17.07;82.41;99460.03;4850884;29;20072;-81
2021/08/16 01:57:48;;;;;;;0.10;0.10;;;;;;;17.05;82.21;99462.13;4857493;29;20045;-79
2021/08/16 02:00:13;;;;;;;0.10;0.10;;;;;;;16.98;82.53;99463.97;4824707;29;20486;-81
2021/08/16 02:02:40;;;;;;;0.20;0.20;;;;;;;16.99;82.82;99462.91;4855656;29;20580;-79
2021/08/16 02:05:06;;;;;;;0.10;0.10;;;;;;;16.90;83.02;99466.84;4858359;29;20507;-80
2021/08/16 02:07:32;;;;;;;0.10;0.10;;;;;;;16.87;83.36;99457.16;4842090;29;20042;-80
2021/08/16 02:09:58;;;;;;;0.10;0.10;;;;;;;16.91;83.18;99465.78;4828213;29;20415;-80
2021/08/16 02:12:23;;;;;;;0.10;0.10;;;;;;;16.96;82.93;99471.50;4844454;29;20101;-81
2021/08/16 02:14:49;;;;;;;0.10;0.10;;;;;;;17.01;82.80;99463.56;4836010;29;20034;-79
2021/08/16 02:17:15;;;;;;;0.10;0.10;;;;;;;17.05;82.70;99467.59;4840927;29;20049;-80
2021/08/16 02:19:42;;;;;;;0.10;0.10;;;;;;;17.05;82.45;99474.94;4814435;29;20058;-81
2021/08/16 02:22:09;;;;;;;0.10;0.10;;;;;;;17.06;82.52;99474.75;4856488;29;20049;-79
2021/08/16 02:24:35;;;;;;;0.10;0.10;;;;;;;17.05;82.62;99475.78;4841907;29;20041;-80
2021/08/16 02:27:00;;;;;;;0.10;0.10;;;;;;;17.02;82.87;99481.66;4857426;29;20037;-78
2021/08/16 02:29:26;;;;;;;0.10;0.10;;;;;;;17.01;82.87;99474.50;4844710;29;20057;-79
2021/08/16 02:31:52;;;;;;;0.10;0.10;;;;;;;17.00;83.02;99477.41;4856294;29;20057;-79
2021/08/16 02:34:18;;;;;;;0.10;0.10;;;;;;;16.95;83.37;99480.75;4857269;29;20096;-81
2021/08/16 02:36:43;;;;;;;0.10;0.10;;;;;;;16.92;83.32;99486.59;4857214;29;20053;-81
2021/08/16 02:39:09;;;;;;;0.10;0.10;;;;;;;16.92;83.55;99485.75;4857571;29;20054;-80
2021/08/16 02:41:36;;;;;;;0.10;0.10;;;;;;;16.97;83.52;99489.59;4857166;29;20053;-80
2021/08/16 02:44:02;;;;;;;0.10;0.10;;;;;;;16.94;83.36;99492.72;4824949;29;20483;-80
2021/08/16 02:46:28;;;;;;;0.17;0.17;;;;;;;17.06;83.44;99499.31;4842158;29;20205;-79
2021/08/16 02:48:54;;;;;;;0.20;0.20;;;;;;;17.07;83.05;99492.81;4858918;29;20041;-81
2021/08/16 02:51:20;;;;;;;0.10;0.10;;;;;;;17.14;82.88;99506.53;4842351;29;20105;-80
2021/08/16 02:53:46;;;;;;;0.10;0.10;;;;;;;17.18;82.74;99493.31;4857394;29;20060;-80
2021/08/16 02:56:12;;;;;;;0.10;0.10;;;;;;;17.23;82.78;99497.16;4857351;29;20100;-81
2021/08/16 02:58:37;;;;;;;0.10;0.10;;;;;;;17.23;82.59;99499.06;4848504;29;20330;-80
2021/08/16 03:01:03;;;;;;;0.10;0.10;;;;;;;17.28;82.31;99504.75;4827838;29;20106;-80
2021/08/16 03:03:29;;;;;;;0.10;0.10;;;;;;;17.28;82.72;99502.03;4857330;29;20044;-83
2021/08/16 03:05:55;;;;;;;0.10;0.10;;;;;;;17.28;82.27;99510.22;4857489;29;20061;-81
2021/08/16 03:08:21;;;;;;;0.10;0.10;;;;;;;17.26;82.89;99504.97;4857958;29;20076;-80
2021/08/16 03:10:46;;;;;;;0.20;0.20;;;;;;;17.46;82.15;99517.94;4826588;29;20118;-80
2021/08/16 03:13:12;;;;;;;0.20;0.20;;;;;;;17.55;81.50;99514.84;4857366;29;20540;-79
2021/08/16 03:15:38;;;;;;;0.20;0.20;;;;;;;17.48;81.76;99508.50;4835092;29;20075;-80
2021/08/16 03:18:04;;;;;;;0.15;0.15;;;;;;;17.57;81.26;99518.22;4855193;29;20080;-80
2021/08/16 03:20:30;;;;;;;0.20;0.20;;;;;;;17.59;80.53;99521.59;4855778;29;20109;-81
2021/08/16 03:22:56;;;;;;;0.17;0.17;;;;;;;17.60;80.67;99526.03;4857234;29;20038;-81
2021/08/16 03:25:21;;;;;;;0.20;0.20;;;;;;;17.71;80.40;99534.72;4856554;29;20511;-79
2021/08/16 03:27:47;;;;;;;0.20;0.20;;;;;;;17.82;79.39;99521.34;4856626;29;20410;-80
2021/08/16 03:30:14;;;;;;;0.20;0.20;;;;;;;17.91;79.36;99523.94;4838937;29;20481;-79
2021/08/16 03:32:40;;;;;;;0.20;0.20;;;;;;;17.95;79.18;99519.72;4855620;29;20124;-81
2021/08/16 03:35:06;;;;;;;0.20;0.20;;;;;;;18.01;78.95;99519.78;4844716;29;20515;-80
2021/08/16 03:37:34;;;;;;;0.20;0.20;;;;;;;18.18;77.99;99513.97;4834666;29;20049;-80
2021/08/16 03:40:02;;;;;;;0.20;0.20;;;;;;;18.21;78.24;99519.00;4841461;29;20052;-79
2021/08/16 03:42:29;;;;;;;0.20;0.20;;;;;;;18.23;77.86;99522.41;4844931;29;20096;-80
2021/08/16 03:44:55;;;;;;;0.20;0.20;;;;;;;18.49;77.12;99529.88;4855256;29;20496;-81
2021/08/16 03:47:21;;;;;;;0.20;0.20;;;;;;;18.60;76.55;99533.91;4856809;29;20401;-81
2021/08/16 03:49:47;;;;;;;0.20;0.20;;;;;;;18.83;75.44;99534.44;4856792;29;20041;-81
2021/08/16 03:52:13;;;;;;;0.20;0.20;;;;;;;18.92;75.03;99540.56;4825773;29;20037;-80
2021/08/16 03:54:38;;;;;;;0.20;0.20;;;;;;;18.96;74.93;99539.91;4857515;29;20104;-80
2021/08/16 03:57:04;;;;;;;0.20;0.20;;;;;;;19.09;74.54;99550.06;4857697;29;20106;-80
2021/08/16 03:59:32;;;;;;;0.20;0.20;;;;;;;19.07;74.50;99540.34;4855173;29;20121;-80
2021/08/16 04:01:57;;;;;;;0.20;0.20;;;;;;;19.23;73.95;99546.28;4857556;29;20049;-81
2021/08/16 04:04:23;;;;;;;0.20;0.20;;;;;;;19.49;73.51;99561.06;4839809;29;20472;-81
2021/08/16 04:06:49;;;;;;;0.25;0.25;;;;;;;19.65;73.08;99554.31;4841558;29;20056;-81
2021/08/16 04:09:15;;;;;;;0.30;0.30;;;;;;;19.61;73.03;99561.25;4844161;29;20037;-81
2021/08/16 04:11:41;;;;;;;0.30;0.30;;;;;;;19.82;72.54;99555.56;4843137;29;20049;-83
2021/08/16 04:14:07;;;;;;;0.20;0.20;;;;;;;19.86;72.23;99567.81;4845659;29;20137;-82
2021/08/16 04:16:33;;;;;;;0.20;0.20;;;;;;;20.15;71.29;99571.13;4857239;29;20044;-80
2021/08/16 04:18:59;;;;;;;0.20;0.20;;;;;;;20.26;70.79;99562.22;4857258;29;20053;-81
2021/08/16 04:21:25;;;;;;;0.20;0.20;;;;;;;20.35;70.30;99560.91;4856952;29;20190;-79
2021/08/16 04:23:51;;;;;;;0.22;0.17;;;;;;;20.26;70.98;99569.56;4844676;29;20044;-82
2021/08/16 04:26:17;;;;;;;0.10;0.10;;;;;;;19.74;73.11;99572.22;4828683;29;20069;-82
2021/08/16 04:28:45;;;;;;;0.10;0.10;;;;;;;19.65;73.44;99573.50;4855664;29;20049;-81
2021/08/16 04:31:11;;;;;;;0.10;0.10;;;;;;;19.78;73.61;99575.38;4855331;29;20053;-81
2021/08/16 04:33:37;;;;;;;0.13;0.13;;;;;;;19.76;73.67;99572.88;4857674;29;20099;-84
2021/08/16 04:36:03;;;;;;;0.10;0.10;;;;;;;19.65;74.12;99565.28;4846154;29;20099;-80
2021/08/16 04:38:29;;;;;;;0.10;0.10;;;;;;;19.68;74.23;99570.34;4832252;29;20041;-82
2021/08/16 04:40:55;;;;;;;0.10;0.10;;;;;;;19.75;74.42;99572.03;4856225;29;20141;-80
2021/08/16 04:43:22;;;;;;;0.10;0.10;;;;;;;19.71;74.39;99557.06;4858687;29;20045;-82
2021/08/16 04:45:48;;;;;;;0.20;0.20;;;;;;;19.79;74.52;99553.25;4859875;29;20064;-83
2021/08/16 04:48:14;;;;;;;0.10;0.10;;;;;;;19.73;74.48;99567.81;4845242;29;20051;-79
2021/08/16 04:50:40;;;;;;;0.20;0.20;;;;;;;19.85;74.43;99557.84;4856491;29;20033;-80
2021/08/16 04:53:06;;;;;;;0.10;0.10;;;;;;;20.03;74.00;99556.34;4859455;29;20117;-81
2021/08/16 04:55:31;;;;;;;0.20;0.20;;;;;;;20.28;73.60;99551.84;4860392;29;20053;-80
2021/08/16 04:57:57;;;;;;;0.15;0.15;;;;;;;20.52;72.57;99560.44;4831877;29;20132;-80
2021/08/16 05:00:26;;;;;;;0.15;0.15;;;;;;;20.63;72.23;99554.28;4854719;29;20057;-79
2021/08/16 05:02:54;;;;;;;0.10;0.10;;;;;;;20.63;72.29;99551.53;4850125;29;20053;-80
2021/08/16 05:05:23;;;;;;;0.20;0.20;;;;;;;20.60;72.47;99551.97;4833292;29;20046;-81
2021/08/16 05:07:53;;;;;;;0.20;0.20;;;;;;;20.73;72.11;99551.03;4852322;29;20044;-84
2021/08/16 05:10:23;;;;;;;0.20;0.20;;;;;;;20.91;71.79;99543.75;4817005;29;20038;-80
2021/08/16 05:12:50;;;;;;;0.20;0.20;;;;;;;21.04;71.43;99552.97;4860307;29;20109;-79
2021/08/16 05:15:16;;;;;;;0.38;0.38;;;;;;;21.67;69.35;99550.16;4861248;29;20488;-81
2021/08/16 05:17:42;;;;;;;0.38;0.38;;;;;;;22.17;67.57;99552.84;4859677;29;20485;-81
2021/08/16 05:20:09;;;;;;;0.30;0.30;;;;;;;22.64;66.16;99553.13;4852480;29;20094;-82
2021/08/16 05:22:37;;;;;;;0.32;0.32;;;;;;;23.03;64.50;99556.41;4829497;29;20056;-81
2021/08/16 05:25:05;;;;;;;0.30;0.30;;;;;;;23.25;64.07;99552.03;4818895;29;20401;-82
2021/08/16 05:27:32;;;;;;;0.30;0.30;;;;;;;23.44;63.36;99560.22;4846374;29;20065;-82
2021/08/16 05:29:57;;;;;;;0.30;0.30;;;;;;;23.44;63.16;99563.84;4859330;29;20049;-82
2021/08/16 05:32:24;;;;;;;0.40;0.40;;;;;;;23.79;62.32;99549.25;4843900;29;20113;-83
2021/08/16 05:34:50;;;;;;;0.30;0.30;;;;;;;24.06;61.36;99549.63;4851863;29;20052;-83
2021/08/16 05:37:18;;;;;;;0.30;0.30;;;;;;;24.08;61.62;99552.97;4831412;29;20052;-85
2021/08/16 05:39:45;;;;;;;0.40;0.40;;;;;;;24.40;60.45;99560.88;4835844;29;20484;-83
2021/08/16 05:42:15;;;;;;;0.50;0.50;;;;;;;25.06;58.73;99558.59;4853330;29;20108;-83
2021/08/16 05:44:41;;;;;;;0.40;0.40;;;;;;;25.80;56.71;99558.53;4852694;29;20060;-82
2021/08/16 05:47:08;;;;;;;0.50;0.50;;;;;;;26.63;54.83;99568.59;4846557;29;20056;-83
2021/08/16 05:49:37;;;;;;;0.60;0.60;;;;;;;26.79;54.11;99566.81;4831319;29;20041;-84
2021/08/16 05:52:04;;;;;;;0.40;0.40;;;;;;;26.80;53.45;99568.53;4855317;29;20045;-82
2021/08/16 05:54:30;;;;;;;0.60;0.60;;;;;;;27.37;52.03;99567.19;4833474;29;20069;-85
2021/08/16 05:56:57;;;;;;;0.40;0.40;;;;;;;27.80;51.06;99559.78;4830474;29;20068;-84
2021/08/16 05:59:23;;;;;;;0.50;0.50;;;;;;;28.26;50.54;99563.69;4836795;29;20057;-83
2021/08/16 06:01:49;;;;;;;0.50;0.50;;;;;;;27.98;50.66;99561.31;4862798;29;20044;-82
2021/08/16 06:04:15;;;;;;;0.50;0.50;;;;;;;27.76;51.27;99572.53;4849127;29;20041;-82
2021/08/16 06:06:42;;;;;;;0.60;0.60;;;;;;;28.40;49.14;99579.91;4848793;29;20034;-84
2021/08/16 06:09:09;;;;;;;0.50;0.50;;;;;;;29.04;47.53;99574.09;4832400;29;20058;-84
2021/08/16 06:11:35;;;;;;;0.50;0.50;;;;;;;29.02;47.13;99582.69;4852462;29;20049;-83
2021/08/16 06:14:02;;;;;;;0.50;0.50;;;;;;;29.45;46.74;99569.41;4834384;29;20056;-83
2021/08/16 06:16:28;;;;;;;0.60;0.60;;;;;;;30.11;45.34;99576.06;4857510;29;20492;-83
2021/08/16 06:18:54;;;;;;;0.60;0.60;;;;;;;30.67;43.70;99579.53;4841417;29;20049;-81
2021/08/16 06:21:20;;;;;;;0.70;0.70;;;;;;;31.19;42.68;99580.13;4864704;29;20516;-82
2021/08/16 06:23:48;;;;;;;0.60;0.60;;;;;;;31.79;41.80;99580.84;4845014;29;20046;-83
2021/08/16 06:26:14;;;;;;;0.57;0.57;;;;;;;31.74;40.46;99583.69;4829355;29;20053;-81
2021/08/16 06:28:43;;;;;;;0.60;0.60;;;;;;;31.70;38.51;99586.22;4829610;29;20045;-82
2021/08/16 06:31:10;;;;;;;0.60;0.60;;;;;;;32.12;38.12;99583.91;4832240;29;20045;-82
2021/08/16 06:33:41;;;;;;;0.70;0.70;;;;;;;32.12;39.24;99589.50;4833476;29;20037;-83
2021/08/16 06:36:08;;;;;;;0.60;0.60;;;;;;;32.67;37.18;99587.22;4847855;29;20041;-82
2021/08/16 06:38:35;;;;;;;0.50;0.50;;;;;;;33.32;36.52;99587.47;4860853;29;20045;-83
2021/08/16 06:41:02;;;;;;;0.50;0.50;;;;;;;32.02;38.77;99578.41;4841365;29;20429;-83
2021/08/16 06:43:29;;;;;;;0.43;0.43;;;;;;;32.09;39.80;99587.28;4813367;29;20045;-83
2021/08/16 06:45:56;;;;;;;0.52;0.52;;;;;;;31.75;38.48;99576.97;4839733;29;20109;-82
2021/08/16 06:48:23;;;;;;;0.60;0.60;;;;;;;31.37;39.46;99585.09;4852772;29;20064;-85
2021/08/16 06:50:51;;;;;;;0.50;0.50;;;;;;;32.39;38.29;99584.16;4827847;29;20045;-85
2021/08/16 06:53:17;;;;;;;0.50;0.50;;;;;;;31.98;39.08;99577.34;4839754;29;20044;-84
2021/08/16 06:55:45;;;;;;;0.30;0.30;;;;;;;32.22;37.46;99581.00;4832448;29;20046;-82
2021/08/16 06:58:11;;;;;;;0.40;0.40;;;;;;;32.43;37.15;99581.63;4838865;29;20060;-82
2021/08/16 07:00:43;;;;;;;0.30;0.30;;;;;;;31.18;39.73;99584.88;4836193;29;20038;-83
2021/08/16 07:03:10;;;;;;;0.20;0.20;;;;;;;31.45;39.73;99584.47;4832045;29;20044;-82
2021/08/16 07:05:43;;;;;;;0.50;0.50;;;;;;;32.24;38.01;99578.72;4845904;29;20544;-82
2021/08/16 07:08:11;;;;;;;0.40;0.40;;;;;;;32.86;36.81;99590.88;4864945;29;20056;-83
2021/08/16 07:10:38;;;;;;;0.50;0.50;;;;;;;32.33;37.47;99588.16;4852874;29;20085;-83
2021/08/16 07:13:04;;;;;;;0.40;0.40;;;;;;;32.36;38.07;99586.72;4852456;29;20192;-82
2021/08/16 07:15:30;;;;;;;0.40;0.40;;;;;;;31.89;38.74;99593.94;4864936;29;20049;-86
2021/08/16 07:17:57;;;;;;;0.40;0.40;;;;;;;32.30;37.60;99594.34;4842116;29;20041;-84
2021/08/16 07:20:23;;;;;;;0.40;0.40;;;;;;;32.72;36.90;99595.53;4870137;29;20053;-84
2021/08/16 07:22:49;;;;;;;0.50;0.50;;;;;;;32.63;36.41;99602.97;4871120;29;20516;-84
2021/08/16 07:25:16;;;;;;;0.70;0.70;;;;;;;33.43;35.13;99599.34;4857125;29;20070;-83
2021/08/16 07:27:43;;;;;;;0.85;0.85;;;;;;;32.98;34.12;99600.84;4859316;29;20072;-84
2021/08/16 07:30:11;;;;;;;0.70;0.70;;;;;;;33.03;33.66;99601.63;4869153;29;20045;-83
2021/08/16 07:32:38;;;;;;;0.70;0.70;;;;;;;33.37;32.44;99600.56;4868591;29;20060;-85
2021/08/16 07:35:05;;;;;;;0.60;0.60;;;;;;;33.50;32.63;99605.44;4852413;29;20268;-82
2021/08/16 07:37:32;;;;;;;0.90;0.90;;;;;;;34.16;32.28;99605.50;4841538;29;20101;-84
2021/08/16 07:39:59;;;;;;;0.73;0.73;;;;;;;34.48;31.56;99604.56;4822950;29;20068;-84
2021/08/16 07:42:28;;;;;;;0.70;0.70;;;;;;;35.32;30.77;99604.22;4837385;29;20045;-85
2021/08/16 07:44:55;;;;;;;0.88;0.88;;;;;;;35.15;31.25;99593.66;4841173;29;20240;-83
2021/08/16 07:47:22;;;;;;;0.70;0.70;;;;;;;34.60;31.61;99599.31;4849635;29;20053;-84
2021/08/16 07:49:48;;;;;;;0.80;0.80;;;;;;;35.73;29.49;99587.22;4851234;29;20049;-82
2021/08/16 07:52:15;;;;;;;0.80;0.80;;;;;;;35.58;28.84;99596.06;4818783;29;20467;-85
2021/08/16 07:54:44;;;;;;;0.40;0.40;;;;;;;35.37;28.65;99594.84;4848143;29;20507;-85
2021/08/16 07:57:12;;;;;;;0.68;0.68;;;;;;;34.46;30.23;99595.63;4813523;29;20064;-84
2021/08/16 07:59:38;;;;;;;0.57;0.57;;;;;;;34.10;30.28;99590.69;4860651;29;20041;-85
2021/08/16 08:02:05;;;;;;;0.60;0.60;;;;;;;33.85;31.42;99589.97;4837614;29;20520;-82
2021/08/16 08:04:30;;;;;;;0.70;0.70;;;;;;;35.02;29.59;99586.91;4863409;29;20064;-84
2021/08/16 08:06:57;;;;;;;0.80;0.80;;;;;;;34.86;29.25;99584.75;4860758;29;20053;-84
2021/08/16 08:09:24;;;;;;;0.90;0.90;;;;;;;35.16;28.96;99595.31;4848331;29;20034;-84
2021/08/16 08:11:50;;;;;;;0.70;0.70;;;;;;;35.75;28.00;99587.72;4844679;29;20041;-85
2021/08/16 08:14:18;;;;;;;0.60;0.60;;;;;;;35.47;28.42;99584.19;4847807;29;20052;-86
2021/08/16 08:16:46;;;;;;;0.80;0.80;;;;;;;34.97;28.85;99580.56;4842784;29;20049;-84
2021/08/16 08:19:13;;;;;;;0.60;0.60;;;;;;;35.00;28.99;99597.66;4859170;29;20053;-83
2021/08/16 08:21:39;;;;;;;0.47;0.47;;;;;;;34.82;29.52;99594.94;4839217;29;20089;-85
2021/08/16 08:24:05;;;;;;;0.30;0.30;;;;;;;33.88;29.95;99593.31;4876569;29;20057;-85
2021/08/16 08:26:34;;;;;;;0.40;0.40;;;;;;;32.72;30.55;99584.34;4859386;29;20050;-85
2021/08/16 08:29:02;;;;;;;0.50;0.50;;;;;;;32.96;29.55;99575.13;4843574;29;20038;-86
2021/08/16 08:31:31;;;;;;;0.30;0.30;;;;;;;34.01;29.21;99564.50;4829531;29;20078;-84
2021/08/16 08:33:58;;;;;;;0.20;0.20;;;;;;;32.84;30.92;99573.56;4870738;29;20049;-85
2021/08/16 08:36:27;;;;;;;0.30;0.30;;;;;;;31.83;31.19;99567.94;4863661;29;20049;-85
2021/08/16 08:38:55;;;;;;;0.30;0.30;;;;;;;32.33;30.28;99565.78;4832327;29;20045;-87
2021/08/16 08:41:29;;;;;;;0.40;0.40;;;;;;;33.07;28.96;99573.84;4847246;29;20057;-85
2021/08/16 08:44:04;;;;;;;0.50;0.50;;;;;;;34.16;28.35;99572.63;4868303;29;20029;-84
2021/08/16 08:46:43;;;;;;;0.80;0.80;;;;;;;35.48;26.62;99573.75;5432503;23;20040;-85
2021/08/16 08:49:14;;;;;;;0.70;0.70;;;;;;;36.16;26.00;99572.59;4862107;29;20528;-85
2021/08/16 08:51:54;;;;;;;0.70;0.70;;;;;;;36.01;26.52;99567.38;4914310;23;20046;31
2021/08/16 08:54:23;;;;;;;0.40;0.40;;;;;;;35.49;27.18;99581.03;4835325;29;20062;-83
2021/08/16 08:56:50;;;;;;;0.30;0.30;;;;;;;34.55;27.26;99574.13;4832092;29;20046;-85
2021/08/16 08:59:19;;;;;;;0.20;0.20;;;;;;;33.92;28.10;99572.75;4820698;29;20047;-83
2021/08/16 09:01:59;;;;;;;0.20;0.20;;;;;;;32.72;29.77;99563.91;4815468;29;20110;-86
2021/08/16 09:04:31;;;;;;;0.50;0.50;;;;;;;32.93;29.51;99572.88;4816872;29;20047;-84
2021/08/16 09:06:59;;;;;;;0.40;0.40;;;;;;;33.32;28.67;99570.66;4832534;29;20145;-86
2021/08/16 09:09:28;;;;;;;0.50;0.50;;;;;;;33.53;28.43;99571.19;4827037;29;20286;-85
2021/08/16 09:11:54;;;;;;;0.50;0.50;;;;;;;34.08;27.96;99573.38;4821077;29;20045;-82
2021/08/16 09:14:22;;;;;;;0.60;0.60;;;;;;;35.19;26.51;99577.81;4819192;29;20054;-82
2021/08/16 09:16:49;;;;;;;0.50;0.50;;;;;;;35.08;26.03;99578.38;4819506;29;20038;-83
2021/08/16 09:19:18;;;;;;;0.90;0.90;;;;;;;34.84;26.84;99570.16;4824057;29;20058;-83
2021/08/16 09:21:53;;;;;;;0.60;0.60;;;;;;;35.63;24.86;99576.22;4822567;29;20057;-82
2021/08/16 09:24:34;;;;;;;0.80;0.80;;;;;;;35.11;25.24;99574.94;4790986;29;20403;-83
2021/08/16 09:27:18;;;;;;;0.20;0.20;;;;;;;34.95;25.75;99571.59;4813159;29;20062;-81
2021/08/16 09:29:48;;;;;;;0.10;0.10;;;;;;;34.03;27.78;99579.06;4810397;29;20058;-82
2021/08/16 09:32:17;;;;;;;0.20;0.20;;;;;;;33.60;29.51;99582.00;4794565;29;20050;-81
2021/08/16 09:34:48;;;;;;;0.20;0.20;;;;;;;32.39;29.65;99580.53;4795361;29;20061;-79
2021/08/16 09:37:25;;;;;;;0.30;0.30;;;;;;;33.99;26.51;99584.44;4815140;29;20103;-81
2021/08/16 09:40:09;;;;;;;0.50;0.50;;;;;;;34.78;26.69;99577.88;4834605;29;20090;-82
2021/08/16 09:42:47;;;;;;;0.30;0.30;;;;;;;34.25;26.96;99576.38;4815920;29;20183;-83
2021/08/16 09:45:27;;;;;;;0.80;0.80;;;;;;;33.75;27.84;99578.97;4810386;29;20107;-85
2021/08/16 09:47:58;;;;;;;1.00;1.00;;;;;;;34.31;26.67;99572.34;4809043;29;20137;-84
2021/08/16 09:50:37;;;;;;;0.93;0.93;;;;;;;35.26;26.57;99578.22;4829927;29;20509;-84
2021/08/16 09:53:13;;;;;;;0.70;0.70;;;;;;;36.33;24.89;99571.03;4824983;29;20144;-84
2021/08/16 09:55:41;;;;;;;0.70;0.70;;;;;;;36.60;24.47;99584.06;4820069;29;20438;-83
2021/08/16 09:58:15;;;;;;;0.70;0.70;;;;;;;36.73;24.71;99585.13;4803740;29;20107;-83
2021/08/16 10:00:43;;;;;;;0.70;0.70;;;;;;;37.15;23.71;99578.78;4818453;29;20031;-82
2021/08/16 10:03:11;;;;;;;0.60;0.60;;;;;;;37.22;23.88;99580.25;4805561;29;20139;-84
2021/08/16 10:05:40;;;;;;;0.15;0.15;;;;;;;37.63;23.41;99574.97;4835480;29;20080;-83
2021/08/16 10:08:09;;;;;;;0.70;0.70;;;;;;;37.47;23.48;99582.28;4818244;29;20055;-83
2021/08/16 10:10:39;;;;;;;0.60;0.60;;;;;;;36.38;24.21;99579.31;4821861;29;20429;-83
2021/08/16 10:13:09;;;;;;;0.70;0.70;;;;;;;36.74;24.62;99576.31;4821939;29;20412;-82
2021/08/16 10:15:46;;;;;;;0.60;0.60;;;;;;;36.56;24.87;99581.06;4821265;29;20475;-83
2021/08/16 10:18:18;;;;;;;0.70;0.70;;;;;;;35.69;25.55;99582.56;4821778;29;20111;-83
2021/08/16 10:20:46;;;;;;;;;;;;;;;35.90;25.72;99580.88;4789752;29;20051;-83
2021/08/16 10:23:21;;;;;;;0.60;0.60;;;;;;;35.80;25.12;99580.28;4835900;29;19939;-84
2021/08/16 10:25:51;;;;;;;0.70;0.70;;;;;;;36.07;24.99;99579.34;4834189;29;20050;-82
2021/08/16 10:28:33;;;;;;;0.50;0.50;;;;;;;37.79;24.07;99569.63;4831093;29;20115;-83
2021/08/16 10:31:03;;;;;;;0.50;0.50;;;;;;;37.07;23.18;99584.38;4833985;29;20360;-84
2021/08/16 10:33:43;;;;;;;0.60;0.60;;;;;;;36.01;23.94;99584.28;4820569;29;20061;-84
2021/08/16 10:36:21;;;;;;;0.60;0.60;;;;;;;35.95;24.14;99571.47;4819912;29;20077;-83
2021/08/16 10:38:55;;;;;;;0.60;0.60;;;;;;;36.57;23.98;99576.31;4836930;29;20050;-84
2021/08/16 10:41:44;;;;;;;0.60;0.60;;;;;;;36.11;24.84;99574.72;4820151;29;20074;-82
2021/08/16 10:44:15;;;;;;;0.68;0.68;;;;;;;37.81;23.06;99569.28;4820613;29;20058;-83
2021/08/16 10:47:06;;;;;;;0.63;0.63;;;;;;;38.01;22.24;99576.25;4820380;29;20140;-84
2021/08/16 10:49:34;;;;;;;0.57;0.57;;;;;;;37.73;22.83;99567.31;4816458;29;20172;-82
2021/08/16 10:52:01;;;;;;;0.70;0.70;;;;;;;38.34;22.56;99566.03;4804140;29;20129;-84
2021/08/16 10:54:31;;;;;;;0.50;0.50;;;;;;;36.59;23.40;99580.44;4822673;29;20141;-83
2021/08/16 10:56:59;;;;;;;0.50;0.50;;;;;;;36.70;24.48;99564.88;4816114;29;20520;-82
2021/08/16 10:59:28;;;;;;;0.57;0.57;;;;;;;37.46;22.89;99563.72;4821987;29;20080;-83
2021/08/16 11:01:56;;;;;;;0.50;0.50;;;;;;;36.01;24.68;99558.94;4820871;29;20073;-82
2021/08/16 11:04:36;;;;;;;0.50;0.50;;;;;;;36.93;23.16;99562.81;4805663;29;20058;-82
2021/08/16 11:07:04;;;;;;;0.52;0.52;;;;;;;37.95;22.12;99564.31;4815511;29;20560;-83
2021/08/16 11:09:35;;;;;;;0.50;0.50;;;;;;;38.88;21.08;99562.63;4817908;29;20069;-83
2021/08/16 11:12:06;;;;;;;0.40;0.40;;;;;;;38.49;21.43;99553.34;4821595;29;20593;-84
2021/08/16 11:14:34;;;;;;;0.45;0.45;;;;;;;39.30;20.69;99559.84;4824216;29;20227;-83
2021/08/16 11:17:00;;;;;;;0.50;0.50;;;;;;;37.76;22.39;99544.06;4825683;29;20077;-84
2021/08/16 11:19:39;;;;;;;0.50;0.50;;;;;;;38.16;22.21;99544.66;4807967;29;20048;-83
2021/08/16 11:22:08;;;;;;;0.40;0.40;;;;;;;37.91;21.99;99539.91;4824515;29;20056;-84
2021/08/16 11:24:36;;;;;;;0.50;0.50;;;;;;;36.55;23.41;99537.16;4821595;29;20106;-83
2021/08/16 11:27:08;;;;;;;0.40;0.40;;;;;;;36.38;23.84;99539.91;4818177;29;20496;-83
2021/08/16 11:29:36;;;;;;;0.50;0.50;;;;;;;36.86;23.23;99533.41;4834129;29;20799;-83
2021/08/16 11:32:04;;;;;;;0.50;0.50;;;;;;;36.14;23.64;99529.88;4805354;29;20054;-83
2021/08/16 11:34:44;;;;;;;0.60;0.60;;;;;;;35.55;24.62;99540.44;4818457;29;20047;-83
2021/08/16 11:37:12;;;;;;;0.50;0.50;;;;;;;36.06;24.25;99527.88;4818363;29;20058;-83